Time;durP1;ratioP1;P1;durP2;ratioP2;P2;SDS_P1;SDS_P2;PMS_P1;PMS_P2;Temp;Humidity;BMP_temperature;BMP_pressure;BME280_temperature;BME280_humidity;BME280_pressure;Samples;Min_cycle;Max_cycle;Signal;HPM_P1;HPM_P2
2022/02/25 05:02:11;;;;;;;3.42;1.52;;;3.50;99.90;;;;;;5124675;23;20260;-67
2022/02/25 05:04:38;;;;;;;1.55;1.48;;;3.40;99.90;;;;;;4930040;29;20215;-69
2022/02/25 05:07:05;;;;;;;1.90;1.80;;;3.50;99.90;;;;;;4917342;29;20218;-68
2022/02/25 05:09:32;;;;;;;3.03;1.88;;;3.50;99.90;;;;;;4925378;29;20596;-68
2022/02/25 05:11:59;;;;;;;1.65;1.55;;;3.50;99.90;;;;;;4950917;29;20328;-68
2022/02/25 05:22:40;;;;;;;1.83;1.73;;;3.50;99.90;;;;;;4954460;29;20199;-69
2022/02/25 05:25:07;;;;;;;5.65;1.90;;;3.50;99.90;;;;;;4949235;23;20233;-72
2022/02/25 05:27:34;;;;;;;1.67;1.65;;;3.50;99.90;;;;;;4924434;29;20251;-72
2022/02/25 05:30:01;;;;;;;3.15;1.65;;;3.40;99.90;;;;;;4927785;29;20210;-72
2022/02/25 05:32:29;;;;;;;1.90;1.80;;;3.50;99.90;;;;;;4929074;29;20548;-71
2022/02/25 05:34:55;;;;;;;5.53;2.35;;;3.40;99.90;;;;;;4922626;29;20230;-72
2022/02/25 05:37:22;;;;;;;4.65;2.10;;;3.40;99.90;;;;;;4913394;29;20349;-72
2022/02/25 05:39:49;;;;;;;5.80;1.98;;;3.50;99.90;;;;;;4897100;29;20218;-72
2022/02/25 05:42:15;;;;;;;2.60;1.55;;;3.50;99.90;;;;;;4907004;29;20210;-72
2022/02/25 05:44:42;;;;;;;7.78;2.55;;;3.60;99.90;;;;;;4915549;29;20560;-72
2022/02/25 05:47:09;;;;;;;2.67;2.30;;;3.60;99.90;;;;;;4916135;29;20214;-72
2022/02/25 05:49:37;;;;;;;2.25;2.13;;;3.60;99.90;;;;;;4915262;29;20241;-72
2022/02/25 05:52:04;;;;;;;3.15;1.92;;;3.60;99.90;;;;;;4915934;29;20210;-73
2022/02/25 05:54:30;;;;;;;4.35;2.17;;;3.60;99.90;;;;;;4915726;29;20253;-72
2022/02/25 05:56:57;;;;;;;5.22;3.90;;;3.60;99.90;;;;;;4904490;29;20699;-72
2022/02/25 05:59:24;;;;;;;7.35;3.10;;;3.60;99.90;;;;;;4905645;29;20250;-71
2022/02/25 06:01:51;;;;;;;2.75;2.55;;;3.60;99.90;;;;;;4915858;29;20556;-72
2022/02/25 06:04:17;;;;;;;4.65;3.15;;;3.60;99.90;;;;;;4905569;29;20309;-72
2022/02/25 06:06:45;;;;;;;2.83;2.40;;;3.60;99.90;;;;;;4914459;29;20211;-71
2022/02/25 06:09:12;;;;;;;3.40;2.20;;;3.60;99.90;;;;;;4916006;29;20627;-71
2022/02/25 06:11:39;;;;;;;2.10;2.00;;;3.60;99.90;;;;;;4915298;29;20210;-71
2022/02/25 06:14:06;;;;;;;8.63;2.35;;;3.60;99.90;;;;;;4914892;29;20226;-71
2022/02/25 06:16:32;;;;;;;2.58;2.28;;;3.70;99.90;;;;;;4915506;29;20246;-72
2022/02/25 06:18:59;;;;;;;4.75;2.33;;;3.70;99.90;;;;;;4915218;29;20262;-72
2022/02/25 06:21:26;;;;;;;2.05;1.88;;;3.80;99.90;;;;;;4915054;29;20221;-71
2022/02/25 06:23:54;;;;;;;5.63;2.80;;;3.80;99.90;;;;;;4915909;29;20250;-72
2022/02/25 06:26:20;;;;;;;7.85;2.20;;;3.80;99.90;;;;;;4915586;29;20211;-72
2022/02/25 06:28:47;;;;;;;2.13;2.00;;;3.90;99.90;;;;;;4915957;29;20211;-72
2022/02/25 06:31:14;;;;;;;4.90;2.35;;;3.90;99.90;;;;;;4910050;29;20219;-72
2022/02/25 06:33:41;;;;;;;2.25;2.25;;;4.00;99.90;;;;;;4916090;29;20206;-72
2022/02/25 06:36:07;;;;;;;3.58;2.65;;;4.00;99.90;;;;;;4915494;29;20254;-72
2022/02/25 06:38:34;;;;;;;3.47;2.50;;;4.10;99.90;;;;;;4927457;29;20278;-71
2022/02/25 06:41:02;;;;;;;2.13;1.90;;;4.10;99.90;;;;;;4927263;29;20214;-72
2022/02/25 06:43:29;;;;;;;2.03;1.60;;;4.10;99.90;;;;;;4914933;29;20237;-71
2022/02/25 06:45:56;;;;;;;4.43;1.75;;;4.20;99.90;;;;;;4898556;29;20594;-72
2022/02/25 06:48:23;;;;;;;2.40;2.17;;;4.20;99.90;;;;;;4912213;29;20290;-72
2022/02/25 06:50:50;;;;;;;2.70;1.80;;;4.20;99.90;;;;;;4914112;29;20221;-71
2022/02/25 06:53:17;;;;;;;7.82;2.25;;;4.20;99.90;;;;;;4914163;29;20206;-72
2022/02/25 06:55:44;;;;;;;3.10;2.20;;;4.30;99.90;;;;;;4914137;29;20284;-72
2022/02/25 06:58:12;;;;;;;5.22;2.60;;;4.30;99.90;;;;;;4915486;29;20866;-72
2022/02/25 07:00:40;;;;;;;4.30;2.63;;;4.30;99.90;;;;;;4913689;29;20349;-71
2022/02/25 07:03:07;;;;;;;5.45;1.92;;;4.40;99.90;;;;;;4906530;29;20214;-71
2022/02/25 07:05:34;;;;;;;4.88;1.55;;;4.40;99.90;;;;;;4905748;29;20730;-70
2022/02/25 07:08:01;;;;;;;6.85;2.50;;;4.40;99.90;;;;;;4915323;29;20210;-71
2022/02/25 07:10:28;;;;;;;2.30;1.80;;;4.50;99.90;;;;;;4906372;29;20270;-71
2022/02/25 07:12:54;;;;;;;2.75;2.50;;;4.50;99.90;;;;;;4914919;29;20545;-71
2022/02/25 07:15:22;;;;;;;5.53;2.33;;;4.50;99.90;;;;;;4914644;29;20278;-71
2022/02/25 07:17:49;;;;;;;3.58;2.70;;;4.60;99.90;;;;;;4910853;29;20219;-71
2022/02/25 07:20:16;;;;;;;3.30;2.30;;;4.50;99.90;;;;;;4902020;29;20210;-71
2022/02/25 07:22:43;;;;;;;4.60;2.33;;;4.50;99.90;;;;;;4915679;29;20218;-71
2022/02/25 07:25:09;;;;;;;2.88;2.15;;;4.50;99.90;;;;;;4914863;29;20297;-70
2022/02/25 07:27:36;;;;;;;1.88;1.73;;;4.50;99.90;;;;;;4914663;29;20222;-69
2022/02/25 07:30:03;;;;;;;9.75;2.40;;;4.60;99.90;;;;;;4909291;29;20207;-70
2022/02/25 07:32:31;;;;;;;4.93;1.98;;;4.70;99.90;;;;;;4895692;29;20679;-70
2022/02/25 07:34:58;;;;;;;2.92;2.72;;;4.70;99.90;;;;;;4909209;29;20223;-70
2022/02/25 07:37:25;;;;;;;8.10;2.95;;;4.80;99.90;;;;;;4914382;29;20243;-70
2022/02/25 07:39:52;;;;;;;3.05;2.33;;;4.90;99.90;;;;;;4913756;29;20775;-70
2022/02/25 07:42:18;;;;;;;3.22;2.40;;;5.10;99.90;;;;;;4914435;29;20210;-70
2022/02/25 07:44:45;;;;;;;9.88;2.67;;;5.10;99.90;;;;;;4908007;29;20223;-70
2022/02/25 07:47:12;;;;;;;3.42;2.30;;;5.10;99.90;;;;;;4911620;29;20211;-70
2022/02/25 07:49:40;;;;;;;2.45;2.35;;;5.10;99.90;;;;;;4907673;29;20301;-70
2022/02/25 07:52:07;;;;;;;3.88;2.78;;;5.10;99.90;;;;;;4913922;29;20202;-70
2022/02/25 07:54:33;;;;;;;2.45;2.03;;;5.00;99.90;;;;;;4914003;29;20254;-70
2022/02/25 07:57:01;;;;;;;4.88;2.75;;;4.90;99.90;;;;;;4903894;29;20217;-70
2022/02/25 07:59:28;;;;;;;4.55;2.65;;;4.90;99.90;;;;;;4903291;29;20623;-70
2022/02/25 08:01:55;;;;;;;9.23;3.42;;;4.90;99.90;;;;;;4907162;29;20207;-69
2022/02/25 08:04:23;;;;;;;3.70;2.92;;;4.90;99.90;;;;;;4897740;29;20753;-70
2022/02/25 08:06:52;;;;;;;7.28;2.90;;;5.00;99.90;;;;;;4908388;29;20199;-70
2022/02/25 08:09:21;;;;;;;7.10;3.50;;;5.20;99.90;;;;;;4920335;29;20298;-70
2022/02/25 08:11:48;;;;;;;3.10;2.90;;;5.30;99.90;;;;;;4913843;29;20211;-70
2022/02/25 08:14:15;;;;;;;3.10;2.90;;;5.30;99.90;;;;;;4904936;29;20223;-71
2022/02/25 08:16:42;;;;;;;5.35;2.30;;;5.40;99.90;;;;;;4913631;29;20684;-71
2022/02/25 08:19:09;;;;;;;3.05;2.80;;;5.50;99.90;;;;;;4908528;29;20214;-71
2022/02/25 08:21:36;;;;;;;15.68;3.30;;;5.50;99.90;;;;;;4916356;29;20270;-70
2022/02/25 08:24:05;;;;;;;4.60;3.08;;;5.70;99.90;;;;;;4917355;29;20883;-71
2022/02/25 08:26:32;;;;;;;3.00;2.60;;;5.70;99.90;;;;;;4915863;29;20210;-71
2022/02/25 08:28:59;;;;;;;2.85;2.65;;;5.70;99.90;;;;;;4899031;29;20736;-71
2022/02/25 08:31:26;;;;;;;3.05;2.80;;;5.70;99.90;;;;;;4898656;29;20213;-70
2022/02/25 08:33:53;;;;;;;5.20;2.67;;;5.80;99.90;;;;;;4899093;29;20222;-70
2022/02/25 08:36:19;;;;;;;2.17;2.08;;;5.80;99.90;;;;;;4913964;29;20704;-70
2022/02/25 08:38:47;;;;;;;3.72;2.53;;;5.90;99.90;;;;;;4917891;29;20338;-69
2022/02/25 08:41:15;;;;;;;4.25;2.60;;;5.80;99.90;;;;;;4916396;29;20203;-71
2022/02/25 08:43:42;;;;;;;3.80;2.53;;;5.80;99.90;;;;;;4917041;29;20210;-71
2022/02/25 08:46:09;;;;;;;2.15;1.95;;;5.80;99.90;;;;;;4914438;29;20214;-70
2022/02/25 08:48:36;;;;;;;3.50;2.65;;;5.80;99.90;;;;;;4917034;29;20212;-71
2022/02/25 08:51:03;;;;;;;8.23;4.20;;;5.80;99.90;;;;;;4913793;29;20207;-72
2022/02/25 08:53:30;;;;;;;4.20;2.83;;;5.80;99.90;;;;;;4910501;29;20305;-69
2022/02/25 08:55:56;;;;;;;3.22;2.10;;;5.90;99.90;;;;;;4899848;29;20235;-70
2022/02/25 08:58:24;;;;;;;7.15;2.85;;;5.90;99.90;;;;;;4915488;29;20584;-71
2022/02/25 09:00:51;;;;;;;6.32;2.55;;;5.90;99.90;;;;;;4915412;29;20246;-70
2022/02/25 09:03:18;;;;;;;2.95;2.50;;;5.90;99.90;;;;;;4916001;29;20247;-70
2022/02/25 09:05:45;;;;;;;5.13;3.00;;;5.90;99.90;;;;;;4906791;29;20310;-70
2022/02/25 09:08:11;;;;;;;6.93;3.10;;;5.90;99.90;;;;;;4913348;29;20215;-71
2022/02/25 09:10:40;;;;;;;2.53;2.28;;;5.90;99.90;;;;;;4914774;29;20746;-70
2022/02/25 09:13:07;;;;;;;5.55;2.50;;;6.00;99.90;;;;;;4916247;29;20669;-71
2022/02/25 09:15:35;;;;;;;3.47;2.60;;;6.10;99.90;;;;;;4914282;29;20231;-70
2022/02/25 09:18:04;;;;;;;11.52;2.88;;;6.20;99.90;;;;;;4909681;29;20673;-70
2022/02/25 09:20:32;;;;;;;6.30;4.80;;;6.10;99.90;;;;;;4912114;29;20302;-70
2022/02/25 09:22:59;;;;;;;5.65;3.17;;;6.00;99.90;;;;;;4908852;29;20211;-70
2022/02/25 09:25:26;;;;;;;4.32;3.35;;;6.00;99.90;;;;;;4910809;29;20234;-70
2022/02/25 09:27:54;;;;;;;11.70;7.18;;;5.90;99.90;;;;;;4916112;29;20239;-69
2022/02/25 09:30:21;;;;;;;6.50;4.25;;;5.90;99.90;;;;;;4912975;29;20712;-69
2022/02/25 09:32:49;;;;;;;6.70;4.63;;;5.80;99.90;;;;;;4911974;29;20609;-69
2022/02/25 09:35:16;;;;;;;3.50;3.20;;;5.80;99.90;;;;;;4911238;29;20235;-70
2022/02/25 09:37:43;;;;;;;5.40;3.67;;;5.80;99.90;;;;;;4915764;29;20679;-70
2022/02/25 09:40:12;;;;;;;4.22;3.15;;;5.80;99.90;;;;;;4915710;29;20698;-69
2022/02/25 09:42:41;;;;;;;7.25;2.80;;;5.80;99.90;;;;;;4915435;29;20692;-70
2022/02/25 09:45:10;;;;;;;5.55;3.20;;;5.80;99.90;;;;;;4915052;29;20234;-69
2022/02/25 09:47:37;;;;;;;4.72;3.05;;;5.70;99.90;;;;;;4915509;29;20272;-69
2022/02/25 09:50:09;;;;;;;3.38;3.08;;;5.60;99.90;;;;;;4913765;29;20672;-70
2022/02/25 09:52:37;;;;;;;4.07;3.58;;;5.60;99.90;;;;;;4915571;29;20253;-69
2022/02/25 09:55:07;;;;;;;9.85;3.83;;;5.40;99.90;;;;;;4910474;29;20231;-69
2022/02/25 09:57:34;;;;;;;4.00;3.70;;;5.40;99.90;;;;;;4896797;29;20207;-69
2022/02/25 10:00:01;;;;;;;3.90;3.60;;;5.30;99.90;;;;;;4903306;29;20218;-69
2022/02/25 10:02:38;;;;;;;4.50;4.10;;;5.20;99.90;;;;;;4915565;29;20207;-69
2022/02/25 10:05:10;;;;;;;4.35;3.80;;;5.20;99.90;;;;;;4914237;29;20317;-69
2022/02/25 10:07:39;;;;;;;3.40;3.20;;;5.10;99.90;;;;;;4912963;29;20278;-69
2022/02/25 10:10:07;;;;;;;11.73;3.75;;;5.10;99.90;;;;;;4896161;29;20207;-69
2022/02/25 10:12:34;;;;;;;4.60;3.50;;;5.10;99.90;;;;;;4905814;29;20215;-70
2022/02/25 10:15:01;;;;;;;7.47;4.45;;;5.20;99.90;;;;;;4909683;29;20283;-69
2022/02/25 10:17:29;;;;;;;4.30;3.97;;;5.20;99.90;;;;;;4915002;29;20398;-69
2022/02/25 10:19:58;;;;;;;3.53;3.33;;;5.20;99.90;;;;;;4913884;29;20222;-69
2022/02/25 10:22:27;;;;;;;3.90;3.50;;;5.30;99.90;;;;;;4915448;29;20211;-70
2022/02/25 10:24:56;;;;;;;3.13;2.75;;;5.50;99.90;;;;;;4914730;29;20716;-70
2022/02/25 10:27:28;;;;;;;4.57;4.18;;;5.60;99.90;;;;;;4917228;29;20214;-70
2022/02/25 10:29:58;;;;;;;3.75;3.17;;;5.70;99.90;;;;;;4909010;29;20251;-71
2022/02/25 10:32:34;;;;;;;4.18;3.78;;;5.80;99.90;;;;;;4916193;29;20233;-70
2022/02/25 10:35:01;;;;;;;3.67;3.35;;;5.80;99.90;;;;;;4907508;29;20975;-70
2022/02/25 10:37:30;;;;;;;4.22;3.88;;;5.90;99.90;;;;;;4903340;29;20956;-70
2022/02/25 10:39:57;;;;;;;6.97;3.40;;;6.00;99.90;;;;;;4911493;29;20233;-70
2022/02/25 10:42:24;;;;;;;5.25;4.75;;;6.10;99.90;;;;;;4914747;29;20207;-70
2022/02/25 10:44:57;;;;;;;3.95;3.60;;;6.20;99.90;;;;;;4908780;29;20230;-70
2022/02/25 10:47:25;;;;;;;4.50;4.10;;;6.30;99.90;;;;;;4907181;29;20630;-70
2022/02/25 10:50:00;;;;;;;4.70;3.33;;;6.30;99.90;;;;;;4896893;29;20211;-70
2022/02/25 10:52:31;;;;;;;8.35;3.55;;;6.30;99.90;;;;;;4914748;29;20266;-70
2022/02/25 10:54:59;;;;;;;4.65;4.18;;;6.40;99.90;;;;;;4902161;29;20230;-70
2022/02/25 10:57:27;;;;;;;3.90;3.50;;;6.40;99.90;;;;;;4922139;29;20667;-69
2022/02/25 10:59:55;;;;;;;4.45;4.05;;;6.50;99.90;;;;;;4926561;29;20265;-70
2022/02/25 11:02:34;;;;;;;4.03;3.67;;;6.60;99.90;;;;;;4930865;29;20290;-70
2022/02/25 11:05:07;;;;;;;4.18;3.60;;;6.50;99.90;;;;;;4914983;29;20326;-71
2022/02/25 11:07:37;;;;;;;3.45;2.95;;;6.60;99.90;;;;;;4914216;29;20202;-71
2022/02/25 11:10:05;;;;;;;8.85;3.70;;;6.60;99.90;;;;;;4912792;29;20616;-71
2022/02/25 11:12:32;;;;;;;4.20;3.47;;;6.70;99.90;;;;;;4911809;29;20207;-69
2022/02/25 11:15:00;;;;;;;5.13;4.00;;;6.80;99.90;;;;;;4923290;29;20659;-69
2022/02/25 11:17:28;;;;;;;3.72;3.50;;;6.70;99.90;;;;;;4922593;29;20574;-70
2022/02/25 11:19:58;;;;;;;3.28;2.58;;;6.70;99.90;;;;;;4905910;29;20206;-70
2022/02/25 11:22:25;;;;;;;4.90;3.00;;;6.80;99.90;;;;;;4909125;29;20768;-70
2022/02/25 11:24:54;;;;;;;3.83;3.28;;;6.80;99.90;;;;;;4920324;29;20229;-70
2022/02/25 11:27:21;;;;;;;2.65;2.42;;;6.90;99.90;;;;;;4910081;29;20207;-69
2022/02/25 11:29:58;;;;;;;4.22;3.47;;;7.10;99.90;;;;;;4913503;29;20249;-70
2022/02/25 11:32:33;;;;;;;4.45;3.63;;;7.20;99.90;;;;;;4912113;29;20234;-70
2022/02/25 11:34:59;;;;;;;6.72;3.38;;;7.30;99.90;;;;;;4910850;29;20233;-70
2022/02/25 11:37:46;;;;;;;2.28;2.10;;;7.20;99.90;;;;;;4913172;29;20241;-70
2022/02/25 11:40:15;;;;;;;6.40;2.40;;;7.30;99.90;;;;;;4911368;29;20210;-69
2022/02/25 11:42:42;;;;;;;3.40;3.08;;;7.20;99.90;;;;;;4912628;29;20202;-70
2022/02/25 11:45:23;;;;;;;2.85;2.40;;;7.20;99.90;;;;;;4909318;29;20259;-69
2022/02/25 11:47:52;;;;;;;3.60;2.90;;;7.20;99.90;;;;;;4912493;29;20195;-70
2022/02/25 11:50:37;;;;;;;3.00;2.85;;;7.10;99.90;;;;;;4910515;29;20253;-71
2022/02/25 11:53:17;;;;;;;3.95;2.80;;;7.10;99.90;;;;;;4913173;29;20681;-70
2022/02/25 11:55:46;;;;;;;10.13;3.10;;;7.00;99.90;;;;;;4912948;29;20250;-70
2022/02/25 11:58:46;;;;;;;4.22;3.10;;;7.00;99.90;;;;;;4913169;29;20206;-70
2022/02/25 12:01:14;;;;;;;2.30;2.20;;;7.00;99.90;;;;;;4912500;29;20211;-70
2022/02/25 12:04:05;;;;;;;2.58;1.75;;;7.00;99.90;;;;;;4916805;29;20214;-70
2022/02/25 12:07:07;;;;;;;3.63;3.30;;;7.00;99.90;;;;;;4914003;29;20290;-70
2022/02/25 12:09:55;;;;;;;3.38;2.97;;;7.00;99.90;;;;;;4908894;29;20294;-70
2022/02/25 12:12:39;;;;;;;2.20;2.00;;;7.00;99.90;;;;;;4911505;29;20246;-70
2022/02/25 12:15:09;;;;;;;3.70;2.03;;;7.00;99.90;;;;;;4915243;29;20235;-69
2022/02/25 12:17:42;;;;;;;5.35;2.60;;;6.90;99.90;;;;;;4916418;29;20329;-70
2022/02/25 12:20:11;;;;;;;5.63;3.00;;;6.90;99.90;;;;;;4915761;29;20265;-70
2022/02/25 12:22:56;;;;;;;3.22;2.25;;;6.80;99.90;;;;;;4916336;29;20221;-70
2022/02/25 12:26:00;;;;;;;2.97;2.80;;;6.70;99.90;;;;;;4916328;29;20242;-69
2022/02/25 12:28:45;;;;;;;3.83;2.55;;;6.70;99.90;;;;;;4916272;29;20738;-69
2022/02/25 12:31:13;;;;;;;5.45;2.45;;;6.60;99.90;;;;;;4926258;29;20218;-69
2022/02/25 12:33:53;;;;;;;3.40;2.35;;;6.60;99.90;;;;;;4897989;29;20211;-69
2022/02/25 12:36:42;;;;;;;4.13;2.20;;;6.70;99.90;;;;;;4914042;29;20226;-69
2022/02/25 12:39:11;;;;;;;2.28;1.90;;;6.80;99.90;;;;;;4916808;29;20206;-70
2022/02/25 12:41:41;;;;;;;2.20;2.10;;;6.80;99.90;;;;;;4916002;29;20285;-70
2022/02/25 12:44:10;;;;;;;2.33;2.13;;;6.80;99.90;;;;;;4913348;29;20238;-68
2022/02/25 12:46:40;;;;;;;2.42;2.22;;;6.80;99.90;;;;;;4913432;29;20209;-69
2022/02/25 12:49:09;;;;;;;3.33;1.80;;;6.90;99.90;;;;;;4919171;29;20202;-68
2022/02/25 12:51:37;;;;;;;1.95;1.42;;;7.00;99.90;;;;;;4916361;29;20202;-68
2022/02/25 12:54:05;;;;;;;2.50;0.90;;;7.10;99.90;;;;;;4915962;29;20588;-69
2022/02/25 12:56:34;;;;;;;1.48;1.15;;;7.30;99.90;;;;;;4910753;29;20320;-69
2022/02/25 12:59:04;;;;;;;4.47;2.17;;;7.40;99.90;;;;;;4914052;29;20218;-69
2022/02/25 13:01:34;;;;;;;4.22;2.47;;;7.60;99.90;;;;;;4909333;29;20215;-70
2022/02/25 13:04:04;;;;;;;1.10;1.00;;;7.80;99.90;;;;;;4920084;29;21184;-69
2022/02/25 13:06:32;;;;;;;2.05;1.80;;;8.00;99.90;;;;;;4919091;29;20285;-69
2022/02/25 13:08:59;;;;;;;4.43;1.23;;;8.20;99.90;;;;;;4916288;29;20217;-69
2022/02/25 13:11:27;;;;;;;2.00;1.38;;;8.20;99.90;;;;;;4915881;29;20944;-69
2022/02/25 13:13:54;;;;;;;0.88;0.80;;;8.30;99.90;;;;;;4934187;29;20257;-69
2022/02/25 13:16:24;;;;;;;1.20;1.15;;;8.20;99.90;;;;;;4925796;29;20222;-69
2022/02/25 13:18:52;;;;;;;1.15;1.00;;;8.20;99.90;;;;;;4905306;29;20241;-69
2022/02/25 13:21:18;;;;;;;2.92;2.20;;;8.20;99.90;;;;;;4896357;29;20275;-69
2022/02/25 13:23:52;;;;;;;3.72;1.38;;;8.10;99.90;;;;;;4909311;29;20210;-69
2022/02/25 13:26:22;;;;;;;2.80;0.85;;;7.90;99.90;;;;;;4916176;29;20213;-69
2022/02/25 13:28:50;;;;;;;0.88;0.88;;;7.80;99.90;;;;;;4916621;29;20210;-70
2022/02/25 13:31:24;;;;;;;1.25;1.15;;;7.70;99.90;;;;;;4915891;29;20301;-69
2022/02/25 13:33:53;;;;;;;0.80;0.77;;;7.50;99.90;;;;;;4918043;29;20209;-70
2022/02/25 13:36:22;;;;;;;1.20;1.05;;;7.40;99.90;;;;;;4934157;29;20261;-69
2022/02/25 13:38:56;;;;;;;2.25;0.90;;;7.20;99.90;;;;;;4935196;29;20625;-69
2022/02/25 13:41:23;;;;;;;1.75;0.75;;;6.90;99.90;;;;;;4934626;29;20261;-69
2022/02/25 13:43:50;;;;;;;0.80;0.73;;;6.70;99.90;;;;;;4924211;29;20277;-69
2022/02/25 13:46:20;;;;;;;1.33;0.90;;;6.60;99.90;;;;;;4915657;29;20235;-69
2022/02/25 13:54:25;;;;;;;1.95;0.80;;;6.50;99.90;;;;;;4915348;29;20590;-69
2022/02/25 13:56:54;;;;;;;1.67;1.20;;;6.40;99.90;;;;;;4899555;29;20231;-69
2022/02/25 13:59:23;;;;;;;4.03;1.33;;;6.50;99.90;;;;;;4899657;29;20203;-69
2022/02/25 14:02:03;;;;;;;1.67;1.10;;;6.50;99.90;;;;;;4896975;29;20295;-69
2022/02/25 14:04:32;;;;;;;1.38;1.27;;;6.50;99.90;;;;;;4912600;29;20290;-70
2022/02/25 14:07:00;;;;;;;1.23;1.23;;;6.40;99.90;;;;;;4920143;29;20257;-70
2022/02/25 14:09:28;;;;;;;1.95;1.50;;;6.40;99.90;;;;;;4923909;29;20211;-69
2022/02/25 14:12:05;;;;;;;0.95;0.95;;;6.40;99.90;;;;;;4927980;29;20666;-69
2022/02/25 14:14:33;;;;;;;14.50;7.50;;;6.40;99.90;;;;;;4933809;29;20882;-69
2022/02/25 14:17:00;;;;;;;6.57;3.92;;;6.50;99.90;;;;;;4934062;29;20277;-70
2022/02/25 14:19:27;;;;;;;1.48;1.48;;;6.60;99.90;;;;;;4927535;29;20203;-69
2022/02/25 14:21:55;;;;;;;1.55;1.20;;;6.60;99.90;;;;;;4914425;29;20214;-69
2022/02/25 14:24:26;;;;;;;1.13;1.00;;;6.70;99.90;;;;;;4914693;29;20246;-69
2022/02/25 14:27:22;;;;;;;1.17;0.90;;;6.70;99.90;;;;;;4915009;29;20207;-70
2022/02/25 14:30:04;;;;;;;1.63;1.50;;;6.70;99.90;;;;;;4881196;29;20203;-68
2022/02/25 14:32:32;;;;;;;2.95;1.08;;;6.70;99.90;;;;;;4928745;29;20621;-70
2022/02/25 14:34:59;;;;;;;1.38;1.27;;;6.70;99.90;;;;;;4932627;29;20332;-70
2022/02/25 14:37:30;;;;;;;0.90;0.90;;;6.60;99.90;;;;;;4934026;29;20233;-71
2022/02/25 14:40:00;;;;;;;1.15;1.15;;;6.60;99.90;;;;;;4923386;29;20230;-70
2022/02/25 14:42:29;;;;;;;1.30;1.20;;;6.50;99.90;;;;;;4901492;29;20211;-69
2022/02/25 14:44:57;;;;;;;5.47;1.77;;;6.50;99.90;;;;;;4914476;29;20281;-69
2022/02/25 14:47:23;;;;;;;2.60;1.58;;;6.50;99.90;;;;;;4920608;29;20250;-69
2022/02/25 14:49:50;;;;;;;3.45;1.88;;;6.50;99.90;;;;;;4915021;29;20293;-68
2022/02/25 14:52:17;;;;;;;2.38;2.28;;;6.40;99.90;;;;;;4911581;29;20218;-71
2022/02/25 14:54:45;;;;;;;2.35;0.95;;;6.40;99.90;;;;;;4898833;29;20226;-69
2022/02/25 14:57:12;;;;;;;2.88;1.80;;;6.40;99.90;;;;;;4904271;29;20234;-69
2022/02/25 14:59:41;;;;;;;8.88;4.20;;;6.30;99.90;;;;;;4912749;29;20551;-68
2022/02/25 15:02:09;;;;;;;12.75;5.25;;;6.20;99.90;;;;;;4910468;29;20335;-69
2022/02/25 15:04:36;;;;;;;27.38;10.40;;;6.10;99.90;;;;;;4904802;29;20235;-68
2022/02/25 15:07:03;;;;;;;11.18;4.88;;;6.00;99.90;;;;;;4919332;29;20579;-69
2022/02/25 15:09:30;;;;;;;1.77;1.67;;;5.90;99.90;;;;;;4912086;29;20215;-69
2022/02/25 15:11:58;;;;;;;3.25;1.10;;;6.00;99.90;;;;;;4913530;29;20211;-68
2022/02/25 15:14:25;;;;;;;1.40;1.15;;;6.00;99.90;;;;;;4926668;29;20222;-69
2022/02/25 15:16:52;;;;;;;2.83;2.17;;;6.10;99.90;;;;;;4933497;29;20230;-69
2022/02/25 15:19:20;;;;;;;0.93;0.90;;;6.20;99.90;;;;;;4906141;29;20215;-68
2022/02/25 15:21:48;;;;;;;1.83;1.67;;;6.20;99.90;;;;;;4910853;29;20207;-69
2022/02/25 15:24:16;;;;;;;0.98;0.88;;;6.20;99.90;;;;;;4911608;29;20236;-69
2022/02/25 15:26:43;;;;;;;2.38;1.33;;;6.20;99.90;;;;;;4910889;29;20230;-69
2022/02/25 15:29:11;;;;;;;2.05;1.45;;;6.20;99.90;;;;;;4922544;29;20207;-69
2022/02/25 15:31:38;;;;;;;1.73;1.08;;;6.10;99.90;;;;;;4913078;29;20207;-68
2022/02/25 15:34:04;;;;;;;2.53;1.00;;;6.10;99.90;;;;;;4906723;29;20277;-69
2022/02/25 15:36:33;;;;;;;1.65;1.55;;;6.10;99.90;;;;;;4894356;29;20226;-69
2022/02/25 15:39:00;;;;;;;1.05;0.82;;;6.10;99.90;;;;;;4900765;29;20226;-69
2022/02/25 15:41:29;;;;;;;3.63;0.88;;;6.00;99.90;;;;;;4912104;29;20210;-69
2022/02/25 15:43:55;;;;;;;3.08;1.23;;;5.90;99.90;;;;;;4915582;29;20235;-69
2022/02/25 15:46:24;;;;;;;1.35;1.25;;;5.90;99.90;;;;;;4908352;29;20210;-69
2022/02/25 15:48:50;;;;;;;3.70;2.40;;;5.80;99.90;;;;;;4909614;29;20223;-69
2022/02/25 15:51:17;;;;;;;4.65;2.22;;;5.80;99.90;;;;;;4915929;29;20609;-68
2022/02/25 15:53:44;;;;;;;2.40;2.30;;;5.90;99.90;;;;;;4909907;29;20215;-68
2022/02/25 15:56:12;;;;;;;8.35;5.43;;;5.80;99.90;;;;;;4908442;29;20302;-68
2022/02/25 15:58:40;;;;;;;6.60;3.17;;;5.80;99.90;;;;;;4913714;29;20307;-69
2022/02/25 16:01:07;;;;;;;2.28;1.95;;;5.90;99.90;;;;;;4913466;29;20571;-69
2022/02/25 16:03:35;;;;;;;3.25;1.98;;;5.90;99.90;;;;;;4911610;29;20214;-69
2022/02/25 16:06:01;;;;;;;2.67;1.25;;;5.90;99.90;;;;;;4922349;29;20241;-68
2022/02/25 16:08:29;;;;;;;2.20;1.15;;;5.90;99.90;;;;;;4914948;29;20202;-70
2022/02/25 16:10:56;;;;;;;1.05;0.90;;;5.90;99.90;;;;;;4912941;29;20237;-69
2022/02/25 16:13:23;;;;;;;3.05;1.42;;;5.80;99.90;;;;;;4915380;29;20301;-69
2022/02/25 16:15:50;;;;;;;1.48;1.40;;;5.80;99.90;;;;;;4912762;29;20254;-70
2022/02/25 16:18:16;;;;;;;1.40;1.30;;;5.80;99.90;;;;;;4911279;29;20235;-69
2022/02/25 16:20:45;;;;;;;3.90;1.75;;;5.80;99.90;;;;;;4913483;29;20257;-69
2022/02/25 16:23:12;;;;;;;6.80;1.08;;;5.80;99.90;;;;;;4922218;29;20203;-69
2022/02/25 16:25:40;;;;;;;3.53;0.93;;;5.80;99.90;;;;;;4917620;29;20345;-68
2022/02/25 16:28:07;;;;;;;1.52;1.08;;;5.80;99.90;;;;;;4919545;29;20218;-68
2022/02/25 16:30:34;;;;;;;1.15;0.63;;;5.70;99.90;;;;;;4915766;29;20217;-69
2022/02/25 16:33:00;;;;;;;2.60;1.42;;;5.70;99.90;;;;;;4920014;29;20210;-68
2022/02/25 16:35:27;;;;;;;0.98;0.75;;;5.70;99.90;;;;;;4912878;29;20318;-69
2022/02/25 16:37:55;;;;;;;1.35;1.17;;;5.70;99.90;;;;;;4920167;29;20230;-68
2022/02/25 16:40:22;;;;;;;2.50;0.90;;;5.70;99.90;;;;;;4918466;29;20229;-68
2022/02/25 16:42:49;;;;;;;2.65;1.08;;;5.80;99.90;;;;;;4919112;29;20207;-69
2022/02/25 16:45:16;;;;;;;3.78;1.33;;;5.70;99.90;;;;;;4905333;29;20235;-69
2022/02/25 16:47:43;;;;;;;5.70;1.30;;;5.70;99.90;;;;;;4905986;29;20203;-69
2022/02/25 16:50:10;;;;;;;3.90;0.82;;;5.70;99.90;;;;;;4910808;29;20207;-69
2022/02/25 16:52:37;;;;;;;1.77;1.20;;;5.70;99.90;;;;;;4916677;29;20206;-68
2022/02/25 16:55:07;;;;;;;4.32;1.40;;;5.70;99.90;;;;;;4915701;29;20278;-69
2022/02/25 16:57:33;;;;;;;5.80;1.48;;;5.70;99.90;;;;;;4911864;29;20231;-68
2022/02/25 17:00:00;;;;;;;4.20;1.60;;;5.70;99.90;;;;;;4917431;29;20229;-68
2022/02/25 17:02:27;;;;;;;3.10;2.03;;;5.70;99.90;;;;;;4924832;29;20210;-70
2022/02/25 17:04:54;;;;;;;2.78;2.47;;;5.60;99.90;;;;;;4914510;29;20230;-70
2022/02/25 17:07:22;;;;;;;4.88;1.35;;;5.60;99.90;;;;;;4915169;29;20211;-70
2022/02/25 17:09:48;;;;;;;3.85;1.60;;;5.60;99.90;;;;;;4916588;29;20298;-70
2022/02/25 17:12:17;;;;;;;3.22;2.22;;;5.60;99.90;;;;;;4916898;29;20242;-70
2022/02/25 17:14:44;;;;;;;2.15;1.33;;;5.60;99.90;;;;;;4918690;29;20230;-70
2022/02/25 17:17:12;;;;;;;4.43;2.00;;;5.60;99.90;;;;;;4919586;29;20206;-69
2022/02/25 17:19:39;;;;;;;4.55;1.40;;;5.60;99.90;;;;;;4906018;29;20225;-70
2022/02/25 17:22:06;;;;;;;5.10;1.73;;;5.60;99.90;;;;;;4904922;29;20237;-70
2022/02/25 17:24:33;;;;;;;4.93;2.38;;;5.60;99.90;;;;;;4916581;29;20262;-70
2022/02/25 17:27:00;;;;;;;4.25;3.80;;;5.60;99.90;;;;;;4911811;29;20686;-70
2022/02/25 17:29:28;;;;;;;7.82;3.40;;;5.70;99.90;;;;;;4918029;29;20268;-70
2022/02/25 17:31:55;;;;;;;9.20;4.38;;;5.70;99.90;;;;;;4917606;29;20229;-69
2022/02/25 17:34:23;;;;;;;9.27;3.00;;;5.60;99.90;;;;;;4915783;29;21079;-69
2022/02/25 17:36:50;;;;;;;7.07;3.70;;;5.60;99.90;;;;;;4908775;29;20245;-70
2022/02/25 17:39:17;;;;;;;9.00;2.58;;;5.60;99.90;;;;;;4909762;29;20227;-69
2022/02/25 17:41:44;;;;;;;3.55;2.55;;;5.60;99.90;;;;;;4914992;29;20679;-69
2022/02/25 17:44:11;;;;;;;15.05;4.63;;;5.60;99.90;;;;;;4907422;29;20235;-70
2022/02/25 17:46:39;;;;;;;3.65;2.42;;;5.70;99.90;;;;;;4914208;29;20207;-71
2022/02/25 17:49:06;;;;;;;10.15;2.60;;;5.70;99.90;;;;;;4913927;29;20577;-69
2022/02/25 17:51:33;;;;;;;6.10;2.70;;;5.70;99.90;;;;;;4914128;29;20266;-71
2022/02/25 17:53:59;;;;;;;10.48;5.10;;;5.60;99.90;;;;;;4915713;29;20211;-70
2022/02/25 17:56:27;;;;;;;14.85;8.88;;;5.70;99.90;;;;;;4909687;29;20207;-70
2022/02/25 17:58:54;;;;;;;9.68;3.80;;;5.60;99.90;;;;;;4907505;29;20310;-69
2022/02/25 18:01:21;;;;;;;3.63;3.33;;;5.60;99.90;;;;;;4914204;29;20286;-70
2022/02/25 18:03:49;;;;;;;9.27;3.92;;;5.70;99.90;;;;;;4908464;29;20202;-70
2022/02/25 18:06:15;;;;;;;7.75;3.30;;;5.70;99.90;;;;;;4921604;29;20699;-69
2022/02/25 18:08:44;;;;;;;17.85;4.82;;;5.70;99.90;;;;;;4908880;29;20255;-70
2022/02/25 18:11:12;;;;;;;8.63;3.47;;;5.70;99.90;;;;;;4897533;29;20229;-70
2022/02/25 18:13:40;;;;;;;12.68;4.50;;;5.70;99.90;;;;;;4915608;29;20306;-69
2022/02/25 18:16:07;;;;;;;6.93;3.03;;;5.70;99.90;;;;;;4906231;29;20230;-69
2022/02/25 18:18:33;;;;;;;16.27;3.22;;;5.70;99.90;;;;;;4914759;29;20734;-70